Time;durP1;ratioP1;P1;durP2;ratioP2;P2;SDS_P1;SDS_P2;PMS_P1;PMS_P2;Temp;Humidity;BMP_temperature;BMP_pressure;BME280_temperature;BME280_humidity;BME280_pressure;Samples;Min_cycle;Max_cycle;Signal;HPM_P1;HPM_P2
2023/04/14 00:00:42;;;;;;;4.67;3.80;;;;;;;10.30;60.14;97974.75;7041843;28;20209;-85
2023/04/14 00:04:04;;;;;;;4.07;3.13;;;;;;;10.09;59.60;97924.84;7045669;28;20221;-84
2023/04/14 00:07:27;;;;;;;5.00;3.50;;;;;;;9.93;59.86;97932.66;7065984;28;20221;-84
2023/04/14 00:10:49;;;;;;;4.53;3.57;;;;;;;9.97;59.29;97914.97;7076107;28;20215;-85
2023/04/14 00:14:14;;;;;;;5.57;3.20;;;;;;;9.92;59.37;97907.59;7067150;28;20227;-86
2023/04/14 00:17:35;;;;;;;4.43;3.43;;;;;;;10.25;59.26;97961.13;7076004;28;20224;-84
2023/04/14 00:20:57;;;;;;;3.40;3.10;;;;;;;9.85;59.01;97881.75;7077153;28;20201;-85
2023/04/14 00:24:20;;;;;;;5.90;3.63;;;;;;;10.00;59.39;97950.41;7063000;28;20276;-87
2023/04/14 00:27:42;;;;;;;7.43;3.80;;;;;;;10.08;58.94;97936.66;7048152;28;20216;-85
2023/04/14 00:31:03;;;;;;;4.93;3.87;;;;;;;9.64;58.58;97884.88;7059831;28;20204;-84
2023/04/14 00:34:25;;;;;;;4.17;3.43;;;;;;;9.95;59.42;97944.00;7076750;27;20220;-87
2023/04/14 00:37:46;;;;;;;8.43;4.23;;;;;;;9.71;58.76;97926.00;7078000;28;20228;-87
2023/04/14 00:41:09;;;;;;;4.60;4.00;;;;;;;9.49;60.13;97948.97;7078738;28;20219;-84
2023/04/14 00:44:31;;;;;;;7.77;4.53;;;;;;;9.24;61.26;97934.69;7077220;28;20223;-85
2023/04/14 00:47:53;;;;;;;10.10;5.20;;;;;;;9.54;61.79;97941.91;7056336;28;20209;-87
2023/04/14 00:51:15;;;;;;;7.77;5.57;;;;;;;9.70;61.49;97980.91;7048825;28;20204;-86
2023/04/14 00:54:37;;;;;;;8.70;7.47;;;;;;;9.83;61.06;97935.84;7074641;28;20236;-84
2023/04/14 00:58:01;;;;;;;7.13;4.97;;;;;;;10.55;59.01;97994.38;7075875;28;20224;-85
2023/04/14 01:01:23;;;;;;;5.37;4.87;;;;;;;10.38;58.76;97960.97;7074872;28;20262;-84
2023/04/14 01:04:45;;;;;;;5.13;4.63;;;;;;;10.56;58.83;98002.25;7074568;28;20224;-85
2023/04/14 01:08:07;;;;;;;5.73;4.30;;;;;;;10.32;59.52;98000.44;7075166;28;20212;-88
2023/04/14 01:11:32;;;;;;;5.83;4.87;;;;;;;9.74;60.16;97931.78;7076869;28;20215;-86
2023/04/14 01:14:59;;;;;;;5.77;5.17;;;;;;;10.12;58.92;97959.41;7075196;28;20251;-85
2023/04/14 01:18:26;;;;;;;6.73;4.57;;;;;;;10.26;59.27;98000.50;7049088;28;20229;-86
2023/04/14 01:21:55;;;;;;;9.23;4.63;;;;;;;9.80;59.71;97948.94;7068160;28;20207;-84
2023/04/14 01:25:41;;;;;;;6.23;4.97;;;;;;;10.47;59.69;98013.56;7066963;28;20234;-86
2023/04/14 01:29:20;;;;;;;6.50;5.00;;;;;;;9.85;60.29;97946.38;7036509;28;20253;-87
2023/04/14 01:32:45;;;;;;;7.60;5.60;;;;;;;9.62;60.73;97957.75;7057363;28;20247;-85
2023/04/14 01:36:10;;;;;;;8.03;5.93;;;;;;;10.30;60.64;97991.75;7058906;28;20223;-85
2023/04/14 01:39:36;;;;;;;9.03;5.43;;;;;;;10.08;59.66;97920.50;7037589;28;20197;-86
2023/04/14 01:43:02;;;;;;;6.30;5.57;;;;;;;10.45;60.15;98024.53;7049474;28;20227;-85
2023/04/14 01:46:24;;;;;;;6.50;5.90;;;;;;;10.13;59.41;97979.06;7066092;28;20203;-85
2023/04/14 01:49:50;;;;;;;7.70;6.00;;;;;;;9.56;60.98;97957.84;7065207;28;20220;-85
2023/04/14 01:53:13;;;;;;;11.03;6.07;;;;;;;9.72;60.74;97960.78;7064087;28;20589;-86
2023/04/14 01:56:36;;;;;;;7.77;6.70;;;;;;;9.93;61.10;97990.00;7066791;28;20231;-85
2023/04/14 01:59:59;;;;;;;11.77;7.60;;;;;;;9.85;61.05;97954.44;7064713;28;20212;-85
2023/04/14 02:03:21;;;;;;;8.20;6.30;;;;;;;10.78;59.69;98032.28;7064225;28;20663;-85
2023/04/14 02:06:45;;;;;;;7.20;6.50;;;;;;;10.49;59.91;98004.19;7052581;28;20203;-85
2023/04/14 02:10:09;;;;;;;6.23;5.57;;;;;;;10.13;60.27;97993.38;7036663;28;20207;-85
2023/04/14 02:13:32;;;;;;;6.43;5.40;;;;;;;9.92;59.47;97947.97;7035948;28;20225;-85
2023/04/14 02:16:56;;;;;;;8.17;5.73;;;;;;;10.18;59.62;98014.25;7050015;28;20224;-85
2023/04/14 02:20:19;;;;;;;8.47;6.90;;;;;;;10.45;59.84;98031.81;7064882;28;20201;-85
2023/04/14 02:23:42;;;;;;;11.13;6.70;;;;;;;9.96;60.11;97976.09;7059838;28;20216;-85
2023/04/14 02:27:09;;;;;;;9.50;6.03;;;;;;;9.56;60.31;97893.25;7036566;28;20213;-85
2023/04/14 02:30:33;;;;;;;8.37;6.40;;;;;;;9.75;60.14;97968.41;7038283;28;20184;-85
2023/04/14 02:33:56;;;;;;;7.13;6.43;;;;;;;9.48;60.82;97944.63;7067615;28;20617;-86
2023/04/14 02:37:22;;;;;;;15.30;11.37;;;;;;;10.21;59.92;98003.06;7068524;28;20235;-85
2023/04/14 02:40:45;;;;;;;16.33;10.63;;;;;;;9.91;60.46;98002.88;7066499;28;20212;-85
2023/04/14 02:44:18;;;;;;;8.23;6.47;;;;;;;10.21;59.49;97997.66;7064145;28;20227;-85
2023/04/14 02:47:43;;;;;;;8.30;7.50;;;;;;;10.49;59.49;98031.16;7063004;28;20204;-88
2023/04/14 02:51:06;;;;;;;7.50;6.67;;;;;;;10.61;58.88;98047.38;7062305;28;20212;-87
2023/04/14 02:54:28;;;;;;;9.33;6.13;;;;;;;10.09;58.78;97972.50;7035835;28;20274;-87
2023/04/14 02:57:51;;;;;;;9.00;7.00;;;;;;;10.06;58.77;97970.25;7036021;28;20229;-88
2023/04/14 03:01:14;;;;;;;7.67;6.13;;;;;;;10.16;59.22;97975.97;7043025;28;20216;-87
2023/04/14 03:04:38;;;;;;;10.03;7.47;;;;;;;10.29;59.73;98041.31;7063962;28;20302;-87
2023/04/14 03:08:00;;;;;;;10.17;6.90;;;;;;;9.84;59.25;97956.34;7041911;28;20219;-85
2023/04/14 03:11:22;;;;;;;9.87;7.40;;;;;;;9.77;59.18;97952.06;7035561;28;20208;-86
2023/04/14 03:14:45;;;;;;;11.47;10.10;;;;;;;9.63;59.25;97931.69;7035144;28;20224;-87
2023/04/14 03:18:07;;;;;;;8.57;7.40;;;;;;;10.00;59.93;98038.41;7057616;28;20615;-87
2023/04/14 03:21:30;;;;;;;9.97;6.93;;;;;;;10.05;60.07;98030.53;7057056;28;20220;-86
2023/04/14 03:24:55;;;;;;;8.13;6.47;;;;;;;10.00;59.53;97995.34;7034153;28;20236;-87
2023/04/14 03:28:21;;;;;;;12.10;7.73;;;;;;;10.02;59.31;97993.22;7035139;28;20197;-87
2023/04/14 03:31:45;;;;;;;9.97;7.77;;;;;;;9.69;59.36;97971.97;7045954;28;20549;-85
2023/04/14 03:35:07;;;;;;;8.07;7.03;;;;;;;9.34;60.27;97967.31;7063202;28;20220;-87
2023/04/14 03:38:29;;;;;;;10.07;7.37;;;;;;;9.13;61.05;97986.47;7067188;28;20228;-88
2023/04/14 03:41:51;;;;;;;10.10;7.20;;;;;;;9.55;60.93;98047.66;7068225;28;20212;-87
2023/04/14 03:45:14;;;;;;;9.70;7.57;;;;;;;9.10;60.99;97958.13;7067795;28;20698;-86
2023/04/14 03:48:41;;;;;;;9.23;7.27;;;;;;;8.69;60.46;97897.81;7041747;28;20664;-87
2023/04/14 03:52:06;;;;;;;8.63;7.73;;;;;;;9.29;59.72;97977.88;7038715;28;20205;-87
2023/04/14 03:55:30;;;;;;;9.23;7.83;;;;;;;8.87;60.31;97911.34;7040770;28;20284;-88
2023/04/14 03:58:54;;;;;;;9.93;7.67;;;;;;;9.25;59.42;97949.75;7038944;28;20231;-87
2023/04/14 04:02:16;;;;;;;9.97;7.73;;;;;;;9.50;59.33;97972.97;7039912;28;20259;-88
2023/04/14 04:05:40;;;;;;;11.87;8.17;;;;;;;8.79;60.13;97986.03;7063834;28;20283;-88
2023/04/14 04:09:02;;;;;;;9.53;7.43;;;;;;;9.13;59.15;97956.88;7049963;28;20207;-87
2023/04/14 04:12:25;;;;;;;10.87;7.43;;;;;;;8.93;59.13;97962.38;7066149;28;20247;-87
2023/04/14 04:15:51;;;;;;;8.87;7.57;;;;;;;9.41;58.79;98024.56;7066482;28;20268;-88
2023/04/14 04:19:14;;;;;;;9.07;7.30;;;;;;;8.49;59.99;97958.03;7042492;28;20582;-89
2023/04/14 04:22:45;;;;;;;10.90;7.50;;;;;;;7.84;60.67;97891.09;7055700;28;20840;-86
2023/04/14 04:26:11;;;;;;;13.87;8.00;;;;;;;8.98;59.86;98042.41;7049739;28;20200;-86
2023/04/14 04:29:33;;;;;;;9.43;7.50;;;;;;;8.58;59.93;97957.59;7048723;28;20197;-87
2023/04/14 04:32:55;;;;;;;11.80;7.83;;;;;;;8.65;59.32;97947.63;7051582;28;20236;-86
2023/04/14 04:36:17;;;;;;;9.17;7.77;;;;;;;8.47;59.51;97963.63;7056788;28;20210;-86
2023/04/14 04:39:40;;;;;;;8.63;7.73;;;;;;;8.72;58.73;97975.28;7080037;28;20247;-86
2023/04/14 04:43:01;;;;;;;10.43;7.10;;;;;;;8.54;58.96;97945.63;7079644;28;20221;-85
2023/04/14 04:46:45;;;;;;;7.00;6.23;;;;;;;9.08;58.16;98066.94;7075774;28;20288;-84
2023/04/14 04:50:07;;;;;;;7.90;6.77;;;;;;;8.79;58.24;98066.66;7063621;28;20212;-85
2023/04/14 04:53:29;;;;;;;11.80;6.67;;;;;;;8.93;57.75;98060.19;7049960;28;20232;-86
2023/04/14 04:56:58;;;;;;;8.50;6.80;;;;;;;8.05;58.80;97999.03;7047242;28;20225;-85
2023/04/14 05:01:04;;;;;;;11.20;9.00;;;;;;;8.73;57.71;98078.25;7056948;28;20204;-89
2023/04/14 05:04:26;;;;;;;7.67;6.23;;;;;;;8.34;58.54;98022.75;7046791;28;20284;-88
2023/04/14 05:07:48;;;;;;;8.10;6.57;;;;;;;8.72;58.00;98076.59;7046954;28;20222;-88
2023/04/14 05:11:09;;;;;;;7.70;6.23;;;;;;;8.26;58.07;98051.69;7066835;28;20208;-89
2023/04/14 05:14:32;;;;;;;9.80;6.73;;;;;;;8.47;57.95;98078.28;7056910;28;20226;-84
2023/04/14 05:17:54;;;;;;;8.03;6.73;;;;;;;8.00;58.29;98004.19;7052589;28;20243;-85
2023/04/14 05:21:15;;;;;;;9.60;7.07;;;;;;;8.26;58.26;98084.72;7062564;28;20199;-85
2023/04/14 05:24:38;;;;;;;12.00;7.47;;;;;;;8.06;58.75;98027.50;7045023;27;20260;-85
2023/04/14 05:27:59;;;;;;;12.17;8.57;;;;;;;8.39;58.82;98084.72;7057781;28;20283;-84
2023/04/14 05:31:22;;;;;;;9.20;7.03;;;;;;;8.65;57.77;98083.81;7071951;28;20257;-85
2023/04/14 05:34:44;;;;;;;7.53;6.70;;;;;;;8.46;57.96;98080.16;7070089;28;20314;-86
2023/04/14 05:38:05;;;;;;;11.77;6.83;;;;;;;8.30;58.46;98088.66;7041243;28;20221;-84
2023/04/14 05:41:27;;;;;;;9.40;7.10;;;;;;;7.91;60.86;98101.22;7044392;28;20209;-86
2023/04/14 05:44:48;;;;;;;10.77;6.93;;;;;;;8.30;59.95;98093.22;7068387;28;20635;-84
2023/04/14 05:48:11;;;;;;;9.63;6.70;;;;;;;8.77;59.89;98107.16;7069686;28;20252;-85
2023/04/14 05:51:33;;;;;;;10.07;6.90;;;;;;;9.21;59.04;98099.19;7070995;27;20823;-84
2023/04/14 05:54:54;;;;;;;11.87;6.30;;;;;;;9.16;59.06;98102.47;7068878;28;20669;-85
2023/04/14 05:58:17;;;;;;;8.33;6.07;;;;;;;9.43;58.92;98124.72;7051610;28;20229;-86
2023/04/14 06:01:38;;;;;;;7.53;5.83;;;;;;;9.60;58.04;98096.25;7037854;28;20225;-86
2023/04/14 06:05:01;;;;;;;7.60;5.77;;;;;;;9.93;56.83;98075.34;7040284;28;20229;-86
2023/04/14 06:08:24;;;;;;;7.43;5.27;;;;;;;10.67;55.19;98113.88;7064559;28;20215;-85
2023/04/14 06:11:45;;;;;;;7.43;5.57;;;;;;;10.07;56.47;98085.84;7036680;28;20201;-86
2023/04/14 06:15:07;;;;;;;8.30;5.67;;;;;;;10.39;55.64;98076.63;7038350;28;20240;-85
2023/04/14 06:18:29;;;;;;;6.40;5.10;;;;;;;10.50;56.06;98083.19;7037678;28;20582;-85
2023/04/14 06:21:52;;;;;;;8.17;5.70;;;;;;;10.29;54.93;97962.34;7037903;28;20275;-86
2023/04/14 06:25:15;;;;;;;5.30;4.30;;;;;;;10.93;51.58;97965.31;7037638;28;20246;-84
2023/04/14 06:28:37;;;;;;;9.93;5.07;;;;;;;10.37;54.39;97976.34;7056709;28;20207;-83
2023/04/14 06:31:59;;;;;;;10.53;5.47;;;;;;;10.89;55.24;98064.72;7067316;28;20765;-83
2023/04/14 06:35:21;;;;;;;8.20;4.60;;;;;;;12.03;51.63;98124.91;7067185;28;20245;-84
2023/04/14 06:38:44;;;;;;;7.70;4.80;;;;;;;11.75;52.76;98052.56;7066054;28;20219;-83
2023/04/14 06:42:06;;;;;;;6.67;4.63;;;;;;;11.44;52.77;98049.25;7051327;28;20576;-85
2023/04/14 06:45:28;;;;;;;6.40;4.53;;;;;;;11.58;54.08;98102.88;7037107;28;20228;-83
2023/04/14 06:48:49;;;;;;;5.70;4.00;;;;;;;12.14;53.33;98043.84;7037040;28;20208;-85
2023/04/14 06:52:11;;;;;;;10.20;4.60;;;;;;;12.82;51.29;98034.09;7056535;28;20734;-84
2023/04/14 06:55:36;;;;;;;6.47;4.63;;;;;;;11.30;53.33;97978.47;7064274;28;20197;-83
2023/04/14 06:58:57;;;;;;;7.17;5.27;;;;;;;12.14;53.30;98003.31;7043310;28;20217;-83
2023/04/14 07:02:19;;;;;;;7.43;4.23;;;;;;;13.68;47.79;97955.41;7036390;28;20697;-84
2023/04/14 07:05:40;;;;;;;9.87;4.27;;;;;;;14.23;45.64;98062.06;7036377;28;20206;-84
2023/04/14 07:09:02;;;;;;;11.83;4.37;;;;;;;14.58;44.68;98087.84;7051822;28;20213;-86
2023/04/14 07:12:25;;;;;;;8.10;3.40;;;;;;;14.69;43.22;97999.28;7068404;28;20218;-85
2023/04/14 07:15:47;;;;;;;5.33;3.60;;;;;;;13.33;44.94;98054.94;7047325;28;20198;-84
2023/04/14 07:19:09;;;;;;;9.80;4.73;;;;;;;14.29;42.71;97990.56;7064721;28;20231;-84
2023/04/14 07:22:32;;;;;;;8.93;4.23;;;;;;;14.26;42.84;98043.41;7068682;28;20771;-84
2023/04/14 07:25:56;;;;;;;9.03;3.97;;;;;;;14.00;44.31;98037.75;7068993;28;20205;-85
2023/04/14 07:29:19;;;;;;;9.37;4.70;;;;;;;13.99;43.35;97925.81;7069782;28;20211;-84
2023/04/14 07:32:41;;;;;;;8.43;3.63;;;;;;;14.31;41.64;97939.59;7068202;28;20222;-84
2023/04/14 07:36:04;;;;;;;7.13;4.20;;;;;;;14.22;42.36;97960.91;7068935;28;20197;-84
2023/04/14 07:39:26;;;;;;;8.93;3.93;;;;;;;14.86;42.82;98067.91;7068261;28;20217;-83
2023/04/14 07:42:47;;;;;;;7.30;3.17;;;;;;;13.93;42.98;97945.78;7060625;28;20238;-84
2023/04/14 07:46:11;;;;;;;10.00;3.53;;;;;;;13.61;44.08;98041.38;7042068;28;20227;-83
2023/04/14 07:49:32;;;;;;;5.40;3.40;;;;;;;14.56;43.07;98048.44;7067175;28;20211;-84
2023/04/14 07:52:54;;;;;;;6.43;4.47;;;;;;;14.92;43.07;98080.50;7068526;28;20229;-85
2023/04/14 07:56:16;;;;;;;10.23;3.93;;;;;;;15.43;42.52;98071.94;7069672;28;20209;-83
2023/04/14 07:59:41;;;;;;;5.43;3.90;;;;;;;15.14;42.70;98022.41;7069674;28;20221;-83
2023/04/14 08:03:04;;;;;;;5.03;3.73;;;;;;;14.85;43.61;98041.81;7069357;28;20221;-84
2023/04/14 08:06:26;;;;;;;7.47;3.73;;;;;;;15.35;42.29;97988.19;7069610;28;20202;-84
2023/04/14 08:09:49;;;;;;;6.43;3.90;;;;;;;15.98;42.01;98081.53;7068966;28;20202;-84
2023/04/14 08:13:11;;;;;;;8.23;4.00;;;;;;;16.68;39.23;98026.94;7069030;28;20254;-84
2023/04/14 08:16:35;;;;;;;9.40;4.67;;;;;;;16.71;40.04;98024.50;7069779;28;20207;-83
2023/04/14 08:19:58;;;;;;;8.60;3.70;;;;;;;16.98;37.73;97950.88;7041499;28;20244;-83
2023/04/14 08:23:21;;;;;;;8.13;3.80;;;;;;;16.22;38.75;98027.66;7039837;28;20228;-83
2023/04/14 08:26:43;;;;;;;6.07;3.60;;;;;;;16.43;39.08;98045.78;7040582;28;20204;-84
2023/04/14 08:30:05;;;;;;;9.23;4.30;;;;;;;15.20;40.81;97987.97;7039145;28;20211;-82
2023/04/14 08:33:27;;;;;;;5.80;3.63;;;;;;;16.40;41.19;98025.38;7039809;28;20227;-82
2023/04/14 08:36:50;;;;;;;3.87;3.20;;;;;;;16.77;39.80;97925.47;7040123;28;20199;-82
2023/04/14 08:40:12;;;;;;;10.03;3.70;;;;;;;16.02;41.43;97978.50;7047634;28;20240;-83
2023/04/14 08:43:38;;;;;;;8.73;3.80;;;;;;;16.68;39.53;97997.81;7054097;28;20221;-81
2023/04/14 08:47:00;;;;;;;9.77;3.50;;;;;;;17.75;38.57;98030.72;7061789;28;20208;-81
2023/04/14 08:50:25;;;;;;;6.83;3.50;;;;;;;18.23;36.67;97979.19;7043180;28;20667;-82
2023/04/14 08:53:48;;;;;;;5.70;2.93;;;;;;;18.10;37.47;97971.53;7052838;28;20224;-82
2023/04/14 08:57:12;;;;;;;9.70;3.70;;;;;;;17.35;37.96;98008.75;7063330;28;20239;-80
2023/04/14 09:00:34;;;;;;;10.33;4.10;;;;;;;17.77;36.11;97958.47;7062923;28;20239;-82
2023/04/14 09:03:57;;;;;;;8.13;3.83;;;;;;;17.06;38.62;97997.47;7063354;28;20243;-82
2023/04/14 09:07:19;;;;;;;6.93;3.30;;;;;;;17.94;38.04;98001.81;7062927;28;20294;-82
2023/04/14 09:10:42;;;;;;;7.47;3.30;;;;;;;18.28;37.97;98038.41;7063059;28;20219;-82
2023/04/14 09:14:04;;;;;;;5.30;3.47;;;;;;;18.56;36.01;98030.50;7062931;28;20362;-83
2023/04/14 09:17:26;;;;;;;7.60;3.33;;;;;;;17.81;38.64;98003.16;7062065;28;20205;-82
2023/04/14 09:20:48;;;;;;;7.27;3.07;;;;;;;19.02;35.97;97988.34;7062602;28;20590;-82
2023/04/14 09:24:10;;;;;;;7.17;3.27;;;;;;;18.93;35.50;98033.72;7045929;28;20938;-82
2023/04/14 09:27:33;;;;;;;8.13;3.30;;;;;;;18.87;36.45;97988.38;7034578;28;20219;-83
2023/04/14 09:30:56;;;;;;;7.93;3.60;;;;;;;19.87;34.48;98028.16;7034618;28;20351;-83
2023/04/14 09:34:19;;;;;;;5.80;2.90;;;;;;;20.07;34.08;98030.78;7034269;28;20217;-81
2023/04/14 09:37:45;;;;;;;6.17;3.63;;;;;;;18.14;36.41;98029.09;7038058;28;20324;-83
2023/04/14 09:41:06;;;;;;;7.50;2.90;;;;;;;18.20;37.34;98036.22;7062344;28;20232;-82
2023/04/14 09:44:30;;;;;;;9.40;2.60;;;;;;;17.62;36.50;98042.09;7062666;28;20229;-83
2023/04/14 09:48:06;;;;;;;5.33;2.83;;;;;;;17.28;37.85;98017.16;7062025;28;20219;-83
2023/04/14 09:51:28;;;;;;;9.30;3.30;;;;;;;18.32;36.50;98004.03;7063336;28;20702;-82
2023/04/14 09:54:54;;;;;;;7.50;2.77;;;;;;;18.36;35.66;97967.75;7054201;28;20310;-83
2023/04/14 09:58:20;;;;;;;6.27;2.90;;;;;;;17.82;35.31;98023.88;7062490;28;20276;-82
2023/04/14 10:01:47;;;;;;;6.43;2.50;;;;;;;17.74;35.06;97980.00;7063278;28;20229;-82
2023/04/14 10:05:11;;;;;;;7.63;2.90;;;;;;;18.94;33.49;97958.88;7062266;28;20267;-87
2023/04/14 10:08:38;;;;;;;6.30;2.83;;;;;;;19.45;32.38;97926.69;7058753;28;20201;-84
2023/04/14 10:12:07;;;;;;;12.43;5.30;;;;;;;20.43;32.48;97993.81;7049649;28;20227;-83
2023/04/14 10:15:29;;;;;;;6.33;2.90;;;;;;;19.72;32.11;97995.41;7060505;28;20209;-83
2023/04/14 10:18:52;;;;;;;9.37;2.90;;;;;;;19.11;33.09;97973.00;7061627;28;20257;-83
2023/04/14 10:22:14;;;;;;;4.47;2.70;;;;;;;19.25;32.88;97985.00;7044658;28;20347;-83
2023/04/14 10:25:36;;;;;;;6.93;2.70;;;;;;;19.22;33.61;97985.56;7036907;28;20649;-84
2023/04/14 10:28:58;;;;;;;6.53;2.87;;;;;;;17.24;35.76;97919.88;7034012;28;20877;-82
2023/04/14 10:32:20;;;;;;;6.43;2.83;;;;;;;19.28;33.74;97986.38;7034023;28;20244;-82
2023/04/14 10:35:46;;;;;;;6.67;2.80;;;;;;;18.52;33.71;97947.50;7037166;28;20291;-83
2023/04/14 10:39:08;;;;;;;5.80;3.33;;;;;;;18.78;32.97;97973.69;7038245;28;20246;-83
2023/04/14 10:42:32;;;;;;;9.17;2.97;;;;;;;18.90;33.62;97954.22;7037939;28;20233;-82
2023/04/14 10:45:54;;;;;;;7.57;2.80;;;;;;;19.52;31.49;97872.50;7036444;28;20209;-81
2023/04/14 10:49:15;;;;;;;6.87;3.60;;;;;;;20.56;32.25;97957.53;7032201;28;20212;-82
2023/04/14 10:52:39;;;;;;;10.83;3.10;;;;;;;18.40;32.52;97948.91;7039944;28;20244;-82
2023/04/14 10:56:03;;;;;;;6.23;2.90;;;;;;;18.14;33.68;97966.34;7053734;28;20207;-81
2023/04/14 10:59:24;;;;;;;6.17;2.80;;;;;;;17.53;34.41;97957.34;7058585;28;20224;-82
2023/04/14 11:02:54;;;;;;;6.87;2.80;;;;;;;17.55;34.42;97943.41;7057716;28;20256;-82
2023/04/14 11:06:51;;;;;;;7.17;2.73;;;;;;;19.47;32.37;97929.94;7049847;28;20220;-81
2023/04/14 11:10:28;;;;;;;7.67;2.70;;;;;;;20.65;31.01;97923.78;7030113;28;20300;-81
2023/04/14 11:14:13;;;;;;;7.70;3.03;;;;;;;19.53;31.52;97932.38;7029508;28;20399;-82
2023/04/14 11:17:37;;;;;;;5.37;2.60;;;;;;;20.35;31.80;97915.03;7031134;28;20270;-81
2023/04/14 11:21:01;;;;;;;7.17;2.73;;;;;;;19.92;31.93;97933.19;7034306;28;20271;-82
2023/04/14 11:24:23;;;;;;;6.70;3.63;;;;;;;20.65;30.54;97890.06;7033329;28;20715;-80
2023/04/14 11:27:46;;;;;;;8.73;3.10;;;;;;;21.85;28.67;97903.00;7031018;28;20268;-82
2023/04/14 11:31:12;;;;;;;7.67;2.73;;;;;;;22.13;28.77;97900.03;7031198;28;20209;-83
2023/04/14 11:34:34;;;;;;;7.60;2.83;;;;;;;19.99;29.65;97868.00;7030371;28;20297;-82
2023/04/14 11:37:56;;;;;;;8.33;2.83;;;;;;;20.00;29.27;97902.47;7033157;28;20209;-82
2023/04/14 11:41:19;;;;;;;5.20;2.70;;;;;;;20.57;29.45;97910.69;7038705;28;20316;-82
2023/04/14 11:44:41;;;;;;;6.00;2.63;;;;;;;18.62;29.93;97914.72;7060993;28;20226;-82
2023/04/14 11:48:05;;;;;;;6.17;2.93;;;;;;;19.27;30.76;97900.00;7059118;28;20622;-83
2023/04/14 11:51:31;;;;;;;4.93;2.90;;;;;;;20.38;29.93;97909.81;7039608;28;20201;-84
2023/04/14 11:54:52;;;;;;;5.73;2.67;;;;;;;21.35;27.69;97885.34;7042227;28;20303;-81
2023/04/14 11:58:16;;;;;;;5.67;2.70;;;;;;;20.57;28.87;97885.25;7063281;28;20665;-82
2023/04/14 12:01:37;;;;;;;6.80;2.50;;;;;;;21.38;26.71;97892.16;7065377;28;20277;-83
2023/04/14 12:05:00;;;;;;;4.93;2.50;;;;;;;21.96;27.57;97875.06;7065269;28;20225;-80
2023/04/14 12:08:23;;;;;;;6.77;2.77;;;;;;;21.59;26.85;97863.31;7066428;28;20218;-82
2023/04/14 12:11:53;;;;;;;6.00;2.87;;;;;;;21.69;27.27;97876.91;7055972;28;20210;-87
2023/04/14 12:15:15;;;;;;;7.60;2.90;;;;;;;21.90;28.18;97843.31;7037853;28;20286;-81
2023/04/14 12:18:36;;;;;;;6.43;2.37;;;;;;;21.45;27.52;97815.81;7038411;28;20232;-82
2023/04/14 12:21:59;;;;;;;5.80;2.70;;;;;;;20.92;28.82;97839.06;7045214;28;20244;-83
2023/04/14 12:25:21;;;;;;;7.07;2.77;;;;;;;20.82;27.53;97846.59;7037947;28;20250;-82
2023/04/14 12:28:43;;;;;;;6.13;2.43;;;;;;;21.48;26.75;97772.13;7036123;28;20293;-82
2023/04/14 12:32:10;;;;;;;6.37;2.47;;;;;;;21.75;26.81;97834.53;7042094;28;20196;-80
2023/04/14 12:35:34;;;;;;;4.43;2.17;;;;;;;21.22;26.12;97838.63;7051640;28;20205;-83
2023/04/14 12:39:05;;;;;;;5.20;2.30;;;;;;;20.35;27.38;97832.91;7043612;28;20226;-83
2023/04/14 12:42:27;;;;;;;8.87;2.90;;;;;;;20.47;28.02;97831.41;7045249;28;20798;-82
2023/04/14 12:45:49;;;;;;;4.90;2.93;;;;;;;20.65;27.28;97830.63;7061228;28;20556;-83
2023/04/14 12:49:29;;;;;;;6.93;3.23;;;;;;;20.09;26.86;97743.97;7049603;28;20257;-84
2023/04/14 12:52:52;;;;;;;4.83;2.37;;;;;;;20.08;26.21;97830.72;7054049;28;20232;-83
2023/04/14 12:56:16;;;;;;;5.63;2.13;;;;;;;20.94;26.25;97836.84;7063216;28;20245;-82
2023/04/14 12:59:38;;;;;;;3.17;2.20;;;;;;;21.46;25.48;97820.16;7063391;28;20294;-84
2023/04/14 13:03:00;;;;;;;5.60;1.77;;;;;;;20.75;24.26;97816.00;7062445;28;20634;-83
2023/04/14 13:06:22;;;;;;;3.60;1.87;;;;;;;20.55;24.37;97799.78;7056269;28;20220;-82
2023/04/14 13:09:44;;;;;;;5.60;2.30;;;;;;;20.45;23.87;97803.47;7034679;28;20201;-83
2023/04/14 13:13:07;;;;;;;6.70;2.30;;;;;;;20.77;23.53;97755.13;7055983;28;20618;-82
2023/04/14 13:16:28;;;;;;;4.30;2.27;;;;;;;20.60;23.34;97781.41;7062437;28;20197;-84
2023/04/14 13:19:50;;;;;;;4.13;2.30;;;;;;;20.03;24.42;97717.72;7062341;28;20292;-85
2023/04/14 13:23:12;;;;;;;3.43;1.80;;;;;;;19.93;24.30;97704.97;7062061;28;20248;-82
2023/04/14 13:26:33;;;;;;;8.37;2.37;;;;;;;20.36;25.39;97766.91;7062363;28;20258;-83
2023/04/14 13:29:56;;;;;;;6.00;2.13;;;;;;;20.54;25.08;97752.44;7051636;28;20343;-83
2023/04/14 13:33:18;;;;;;;5.47;2.30;;;;;;;21.38;25.84;97760.53;7033327;28;20359;-82
2023/04/14 13:36:40;;;;;;;4.70;1.93;;;;;;;21.27;24.17;97761.00;7034405;28;20581;-82
2023/04/14 13:40:01;;;;;;;3.57;1.93;;;;;;;21.23;25.25;97754.47;7033337;28;20233;-81
2023/04/14 13:43:23;;;;;;;3.30;1.87;;;;;;;20.49;24.59;97748.94;7057214;28;20266;-81
2023/04/14 13:46:48;;;;;;;5.63;1.90;;;;;;;20.57;24.69;97729.94;7058448;28;20213;-81
2023/04/14 13:50:10;;;;;;;3.80;2.33;;;;;;;20.59;23.87;97735.13;7063329;28;20205;-83
2023/04/14 13:53:32;;;;;;;5.90;1.90;;;;;;;20.17;23.49;97735.13;7050941;28;20245;-81
2023/04/14 13:56:53;;;;;;;4.50;2.40;;;;;;;19.81;24.76;97726.47;7037165;28;20205;-84
2023/04/14 14:00:15;;;;;;;6.00;2.07;;;;;;;19.60;25.42;97708.66;7034798;28;20680;-83
2023/04/14 14:03:40;;;;;;;3.60;1.97;;;;;;;19.18;25.46;97703.00;7034082;28;20218;-83
2023/04/14 14:07:01;;;;;;;6.00;1.90;;;;;;;20.71;24.26;97724.53;7057648;28;20207;-82
2023/04/14 14:10:23;;;;;;;3.83;2.00;;;;;;;20.63;24.23;97719.75;7036377;28;20209;-84
2023/04/14 14:13:45;;;;;;;4.87;2.20;;;;;;;20.32;23.93;97697.41;7058914;28;20266;-84
2023/04/14 14:17:07;;;;;;;4.70;1.83;;;;;;;19.80;25.60;97715.81;7061512;28;20704;-85
2023/04/14 14:20:30;;;;;;;4.20;1.80;;;;;;;20.00;23.54;97715.59;7035332;28;20254;-85
2023/04/14 14:23:51;;;;;;;5.80;2.03;;;;;;;19.87;24.86;97713.56;7058804;28;20219;-82
2023/04/14 14:27:13;;;;;;;4.63;1.93;;;;;;;19.81;23.92;97699.09;7065603;28;20208;-82
2023/04/14 14:30:34;;;;;;;5.50;2.07;;;;;;;20.23;23.29;97619.78;7054941;28;20499;-82
2023/04/14 14:33:56;;;;;;;2.47;1.80;;;;;;;20.54;23.08;97631.94;7034977;28;20318;-82
2023/04/14 14:37:20;;;;;;;6.17;2.00;;;;;;;20.54;23.72;97664.81;7035576;28;20252;-83
2023/04/14 14:40:41;;;;;;;5.53;2.30;;;;;;;20.23;23.44;97692.91;7035348;28;20232;-82
2023/04/14 14:44:03;;;;;;;4.80;2.17;;;;;;;19.63;23.91;97679.91;7035365;28;20308;-82
2023/04/14 14:47:32;;;;;;;4.50;2.07;;;;;;;18.73;25.06;97636.97;7035929;28;20281;-82
2023/04/14 14:50:53;;;;;;;5.73;2.33;;;;;;;19.18;25.00;97636.59;7036079;28;20189;-82
2023/04/14 14:54:16;;;;;;;2.93;1.80;;;;;;;19.34;25.42;97662.72;7035008;28;20225;-82
2023/04/14 14:57:38;;;;;;;3.13;2.00;;;;;;;18.78;25.20;97672.44;7035463;28;20687;-83
2023/04/14 15:00:59;;;;;;;4.67;1.73;;;;;;;19.22;nan;97673.22;7035191;28;20266;-82
2023/04/14 15:04:21;;;;;;;3.37;1.60;;;;;;;18.73;25.38;97642.44;7036537;28;20213;-82
2023/04/14 15:07:43;;;;;;;4.93;2.47;;;;;;;19.55;24.37;97707.88;7037805;28;20254;-81
2023/04/14 15:11:07;;;;;;;3.13;1.90;;;;;;;19.75;24.31;97702.19;7036105;28;20610;-81
2023/04/14 15:14:28;;;;;;;5.00;1.87;;;;;;;19.30;24.26;97703.47;7036526;28;20301;-85
2023/04/14 15:17:50;;;;;;;4.20;1.80;;;;;;;20.17;23.36;97707.75;7038838;28;20220;-82
2023/04/14 15:21:11;;;;;;;4.27;1.83;;;;;;;19.46;24.07;97690.47;7045263;28;20305;-83
2023/04/14 15:24:33;;;;;;;3.30;2.00;;;;;;;19.89;23.78;97621.06;7072790;28;20250;-82
2023/04/14 15:27:56;;;;;;;5.83;2.43;;;;;;;19.76;23.19;97692.88;7074150;28;20285;-82
2023/04/14 15:31:17;;;;;;;2.53;1.60;;;;;;;20.44;22.42;97703.28;7058959;28;20235;-82
2023/04/14 15:34:39;;;;;;;2.57;1.77;;;;;;;19.34;23.05;97690.03;7066131;28;20228;-86
2023/04/14 15:38:00;;;;;;;2.63;1.57;;;;;;;19.63;21.89;97693.59;7046861;28;20572;-81
2023/04/14 15:41:22;;;;;;;2.93;1.77;;;;;;;19.12;21.96;97701.41;7036653;28;20237;-82
2023/04/14 15:44:45;;;;;;;8.20;1.70;;;;;;;19.20;21.90;97689.03;7036169;28;20282;-83
2023/04/14 15:48:07;;;;;;;5.10;2.20;;;;;;;18.85;21.51;97601.94;7057800;28;20232;-84
2023/04/14 15:51:28;;;;;;;2.10;1.37;;;;;;;18.72;21.72;97673.59;7064754;28;20201;-82
2023/04/14 15:54:50;;;;;;;6.53;2.00;;;;;;;19.07;21.29;97693.25;7048906;28;20223;-83
2023/04/14 15:58:11;;;;;;;2.47;1.60;;;;;;;19.41;21.58;97605.78;7064955;28;20205;-82